Kauhale Kai — V7MC9 — position and weather

sailwx.info

Track history (hours):
 
Tides and Currents Weather Stations Pressure Air Temp Water Temp Dewpoint Dewpoint Depression Visibility Wind Speed Wind Dir Waves Ship Positions

Kauhale Kai

Last reported at 2018-Jun-02 15:21 UTC. Time now 2018-Jun-19 19:58 UTC.
Position N 26°10' W 079°37'.
Warning: this ship's position is 17 days out of date.

; draft 2.8 m.

Type: Pleasure craft. MMSI: 538070338.

Date/timePositionNaut miles runAvg speedWind from/ knotsBaromVisibWave heightAir tempDewpointWater temp
2018-Jun-02 15:21N 26°10' W 079°37'3 8.2
2018-Jun-02 15:00N 26°10' W 079°40'4 8.2
2018-Jun-02 14:29N 26°09' W 079°45'4 8.1
2018-Jun-02 14:00N 26°09' W 079°49'5 8.4
2018-Jun-02 13:27N 26°08' W 079°54'4 9.5
2018-Jun-02 13:00N 26°06' W 079°59'4 9.2
2018-Jun-02 12:30N 26°06' W 080°04'3 6.8
2018-Jun-02 12:00N 26°06' W 080°07'1 2.8
2018-Jun-02 11:30N 26°07' W 080°09'2 3.0
2018-Jun-02 11:00N 26°06' W 080°10'0 0.3
2018-Jun-02 10:30N 26°06' W 080°10'0 0.0
2018-Jun-02 10:00N 26°06' W 080°10'0 0.0
2018-Jun-02 09:30N 26°06' W 080°10'0 0.0
2018-Jun-02 08:59N 26°06' W 080°10'0 0.0
2018-Jun-02 08:30N 26°06' W 080°10'0 0.0
2018-Jun-02 08:00N 26°06' W 080°10'0 0.0
2018-Jun-02 07:30N 26°06' W 080°10'0 0.0
2018-Jun-02 07:00N 26°06' W 080°10'0 0.0
2018-Jun-02 06:30N 26°06' W 080°10'0 0.0
2018-Jun-02 06:00N 26°06' W 080°10'0 0.0
2018-Jun-02 05:30N 26°06' W 080°10'0 0.0
2018-Jun-02 05:00N 26°06' W 080°10'0 0.0
2018-Jun-02 04:30N 26°06' W 080°10'0 0.0
2018-Jun-02 04:00N 26°06' W 080°10'0 0.0
2018-Jun-02 03:30N 26°06' W 080°10'0 0.0
2018-Jun-02 03:00N 26°06' W 080°10'0 0.0
2018-Jun-02 02:30N 26°06' W 080°10'0 0.0
2018-Jun-02 02:00N 26°06' W 080°10'0 0.0
2018-Jun-02 01:30N 26°06' W 080°10'0 0.0
2018-Jun-02 01:00N 26°06' W 080°10'0 0.0
2018-Jun-02 00:30N 26°06' W 080°10'0 0.0
2018-Jun-02 00:00N 26°06' W 080°10'0 0.0
2018-Jun-01 23:29N 26°06' W 080°10'0 0.0
2018-Jun-01 23:00N 26°06' W 080°10'0 0.3
2018-Jun-01 22:30N 26°06' W 080°10'0 0.0
2018-Jun-01 22:00N 26°06' W 080°10'0 0.0
2018-Jun-01 21:30N 26°06' W 080°10'0 0.0
2018-Jun-01 21:00N 26°06' W 080°10'0 0.0
2018-Jun-01 20:30N 26°06' W 080°10'0 0.0
2018-Jun-01 20:00N 26°06' W 080°10'0 0.0
2018-Jun-01 19:30N 26°06' W 080°10'0 0.0
2018-Jun-01 18:59N 26°06' W 080°10'0 0.0
2018-Jun-01 18:30N 26°06' W 080°10'0 0.0
2018-Jun-01 18:00N 26°06' W 080°10'0 0.0
2018-Jun-01 17:30N 26°06' W 080°10'0 0.0
2018-Jun-01 16:59N 26°06' W 080°10'0 0.0
2018-Jun-01 16:27N 26°06' W 080°10'0 0.0
2018-Jun-01 15:56N 26°06' W 080°10'0 0.0
2018-Jun-01 14:47N 26°06' W 080°10'0 0.0
2018-Jun-01 14:28N 26°06' W 080°10'0 0.0
2018-Jun-01 13:35N 26°06' W 080°10'0 0.0
2018-Jun-01 13:14N 26°06' W 080°10'0 0.0
2018-Jun-01 12:56N 26°06' W 080°10'0 0.0
2018-Jun-01 12:30N 26°06' W 080°10'0 0.0
2018-Jun-01 11:31N 26°06' W 080°10'0 0.1
2018-Jun-01 11:25N 26°06' W 080°10'0 0.0
2018-Jun-01 09:32N 26°06' W 080°10'0 0.0
2018-Jun-01 09:16N 26°06' W 080°10'0 0.0
2018-Jun-01 06:50N 26°06' W 080°10'0 0.0
2018-Jun-01 06:28N 26°06' W 080°10'0 0.0
2018-Jun-01 05:50N 26°06' W 080°10'0 0.0
2018-Jun-01 05:28N 26°06' W 080°10'0 0.0
2018-Jun-01 04:48N 26°06' W 080°10'0 0.0
2018-Jun-01 04:10N 26°06' W 080°10'0 0.0
2018-Jun-01 04:00N 26°06' W 080°10'0 0.0
2018-Jun-01 03:27N 26°06' W 080°10'0 0.0
2018-Jun-01 02:53N 26°06' W 080°10'0 0.0
2018-Jun-01 02:30N 26°06' W 080°10'0 0.0
2018-Jun-01 02:00N 26°06' W 080°10'0 0.0
2018-Jun-01 01:30N 26°06' W 080°10'0 0.0
2018-Jun-01 00:59N 26°06' W 080°10'0 0.0
2018-Jun-01 00:30N 26°06' W 080°10'0 0.0
2018-Jun-01 00:00N 26°06' W 080°10'0 0.0
2018-May-31 23:29N 26°06' W 080°10'0 0.0
2018-May-31 23:00N 26°06' W 080°10'0 0.0
2018-May-31 22:30N 26°06' W 080°10'0 0.0
2018-May-31 22:00N 26°06' W 080°10'0 0.0
2018-May-31 21:26N 26°06' W 080°10'0 0.0
2018-May-31 21:00N 26°06' W 080°10'0 0.0
2018-May-31 20:30N 26°06' W 080°10'0 0.0
2018-May-31 20:00N 26°06' W 080°10'0 0.0
2018-May-31 19:30N 26°06' W 080°10'0 0.0
2018-May-31 19:00N 26°06' W 080°10'0 0.0
2018-May-31 18:30N 26°06' W 080°10'0 0.0
2018-May-31 18:00N 26°06' W 080°10'0 0.0
2018-May-31 17:30N 26°06' W 080°10'0 0.0
2018-May-31 17:00N 26°06' W 080°10'0 0.0
2018-May-31 16:30N 26°06' W 080°10'0 0.0
2018-May-31 16:00N 26°06' W 080°10'0 0.0
2018-May-31 15:30N 26°06' W 080°10'0 0.0
2018-May-31 14:59N 26°06' W 080°10'0 0.0
2018-May-31 14:30N 26°06' W 080°10'0 0.0
2018-May-31 14:00N 26°06' W 080°10'0 0.0
2018-May-31 13:30N 26°06' W 080°10'0 0.0
2018-May-31 13:00N 26°06' W 080°10'0 0.0
2018-May-31 12:30N 26°06' W 080°10'0 0.0
2018-May-31 12:00N 26°06' W 080°10'0 0.0
2018-May-31 11:30N 26°06' W 080°10'0 0.0
2018-May-31 11:00N 26°06' W 080°10'0 0.0
2018-May-31 10:30N 26°06' W 080°10'0 0.0
2018-May-31 10:00N 26°06' W 080°10'0 0.0
2018-May-31 09:29N 26°06' W 080°10'0 0.0
2018-May-31 09:00N 26°06' W 080°10'0 0.0
2018-May-31 08:30N 26°06' W 080°10'0 0.0
2018-May-31 08:00N 26°06' W 080°10'0 0.0
2018-May-31 07:30N 26°06' W 080°10'0 0.0
2018-May-31 07:00N 26°06' W 080°10'0 0.0
2018-May-31 06:29N 26°06' W 080°10'0 0.0
2018-May-31 05:59N 26°06' W 080°10'0 0.0
2018-May-31 05:30N 26°06' W 080°10'0 0.0
2018-May-31 05:00N 26°06' W 080°10'0 0.0
2018-May-31 04:29N 26°06' W 080°10'0 0.0
2018-May-31 04:00N 26°06' W 080°10'0 0.0
2018-May-31 03:30N 26°06' W 080°10'0 0.0
2018-May-31 03:00N 26°06' W 080°10'0 0.0
2018-May-31 02:30N 26°06' W 080°10'0 0.0
2018-May-31 02:00N 26°06' W 080°10'0 0.0
2018-May-31 01:30N 26°06' W 080°10'0 0.0
2018-May-31 01:00N 26°06' W 080°10'0 0.0
2018-May-31 00:30N 26°06' W 080°10'0 0.0
2018-May-31 00:00N 26°06' W 080°10'0 0.0
2018-May-30 23:30N 26°06' W 080°10'0 0.0
2018-May-30 22:58N 26°06' W 080°10'0 0.0
2018-May-30 22:30N 26°06' W 080°10'0 0.0
2018-May-30 22:00N 26°06' W 080°10'0 0.0
2018-May-30 21:30N 26°06' W 080°10'0 0.0
2018-May-30 21:00N 26°06' W 080°10'0 0.0
2018-May-30 20:27N 26°06' W 080°10'0 0.0
2018-May-30 19:59N 26°06' W 080°10'0 0.0
2018-May-30 19:29N 26°06' W 080°10'0 0.0
2018-May-30 19:00N 26°06' W 080°10'0 0.0
2018-May-30 18:30N 26°06' W 080°10'0 0.0
2018-May-30 17:59N 26°06' W 080°10'0 0.0
2018-May-30 17:30N 26°06' W 080°10'0 0.0
2018-May-30 17:00N 26°06' W 080°10'0 0.0
2018-May-30 16:30N 26°06' W 080°10'0 0.0
2018-May-30 15:59N 26°06' W 080°10'0 0.0
2018-May-30 15:30N 26°06' W 080°10'0 0.0
2018-May-30 15:00N 26°06' W 080°10'0 0.0
2018-May-30 14:30N 26°06' W 080°10'0 0.0
2018-May-30 14:00N 26°06' W 080°10'0 0.0
2018-May-30 13:30N 26°06' W 080°10'0 0.0
2018-May-30 13:00N 26°06' W 080°10'0 0.0
2018-May-30 12:30N 26°06' W 080°10'0 0.0
2018-May-30 12:00N 26°06' W 080°10'0 0.0
2018-May-30 11:30N 26°06' W 080°10'0 0.0
2018-May-30 11:00N 26°06' W 080°10'0 0.0
2018-May-30 10:30N 26°06' W 080°10'0 0.0
2018-May-30 10:00N 26°06' W 080°10'0 0.0
2018-May-30 09:30N 26°06' W 080°10'0 0.0
2018-May-30 09:00N 26°06' W 080°10'0 0.0
2018-May-30 08:30N 26°06' W 080°10'0 0.0
2018-May-30 08:00N 26°06' W 080°10'0 0.0
2018-May-30 07:30N 26°06' W 080°10'0 0.0
2018-May-30 07:00N 26°06' W 080°10'0 0.0
2018-May-30 06:30N 26°06' W 080°10'0 0.0
2018-May-30 06:00N 26°06' W 080°10'0 0.0
2018-May-30 05:30N 26°06' W 080°10'0 0.0
2018-May-30 05:00N 26°06' W 080°10'0 0.0
2018-May-30 04:30N 26°06' W 080°10'0 0.0
2018-May-30 04:00N 26°06' W 080°10'0 0.0
2018-May-30 03:30N 26°06' W 080°10'0 0.0
2018-May-30 03:00N 26°06' W 080°10'0 0.0
2018-May-30 02:30N 26°06' W 080°10'0 0.0
2018-May-30 02:00N 26°06' W 080°10'0 0.0
2018-May-30 01:30N 26°06' W 080°10'0 0.0
2018-May-30 01:00N 26°06' W 080°10'0 0.0
2018-May-30 00:30N 26°06' W 080°10'0 0.0
2018-May-30 00:00N 26°06' W 080°10'0 0.0
2018-May-29 23:29N 26°06' W 080°10'0 0.0
2018-May-29 23:00N 26°06' W 080°10'0 0.0
2018-May-29 22:30N 26°06' W 080°10'0 0.0
2018-May-29 22:00N 26°06' W 080°10'0 0.0
2018-May-29 21:30N 26°06' W 080°10'0 0.0
2018-May-29 21:00N 26°06' W 080°10'0 0.0
2018-May-29 20:30N 26°06' W 080°10'0 0.0
2018-May-29 20:00N 26°06' W 080°10'0 0.0
2018-May-29 19:30N 26°06' W 080°10'0 0.0
2018-May-29 19:00N 26°06' W 080°10'0 0.0
2018-May-29 18:30N 26°06' W 080°10'0 0.0
2018-May-29 18:00N 26°06' W 080°10'0 0.0
2018-May-29 17:30N 26°06' W 080°10'0 0.0
2018-May-29 16:59N 26°06' W 080°10'0 0.0
2018-May-29 16:29N 26°06' W 080°10'0 0.0
2018-May-29 16:00N 26°06' W 080°10'0 0.0
2018-May-29 15:30N 26°06' W 080°10'0 0.0
2018-May-29 15:00N 26°06' W 080°10'0 0.0
2018-May-29 14:30N 26°06' W 080°10'0 0.0
2018-May-29 14:00N 26°06' W 080°10'0 0.0
2018-May-29 13:30N 26°06' W 080°10'0 0.0
2018-May-29 13:00N 26°06' W 080°10'0 0.0
2018-May-29 12:30N 26°06' W 080°10'0 0.0
2018-May-29 12:00N 26°06' W 080°10'0 0.0
2018-May-29 11:30N 26°06' W 080°10'0 0.0
2018-May-29 10:58N 26°06' W 080°10'0 0.0
2018-May-29 10:30N 26°06' W 080°10'0 0.0
2018-May-29 09:59N 26°06' W 080°10'0 0.0
2018-May-29 09:30N 26°06' W 080°10'0 0.0
2018-May-29 09:00N 26°06' W 080°10'0 0.0
2018-May-29 08:30N 26°06' W 080°10'0 0.0
2018-May-29 08:00N 26°06' W 080°10'0 0.0
2018-May-29 07:28N 26°06' W 080°10'0 0.0
2018-May-29 07:00N 26°06' W 080°10'0 0.0
2018-May-29 06:30N 26°06' W 080°10'0 0.0
2018-May-29 06:00N 26°06' W 080°10'0 0.0
2018-May-29 05:30N 26°06' W 080°10'0 0.0
2018-May-29 05:00N 26°06' W 080°10'0 0.0
2018-May-29 04:27N 26°06' W 080°10'0 0.0
2018-May-29 04:00N 26°06' W 080°10'0 0.0
2018-May-29 03:30N 26°06' W 080°10'0 0.0
2018-May-29 03:00N 26°06' W 080°10'0 0.0
2018-May-29 02:30N 26°06' W 080°10'0 0.0
2018-May-29 02:00N 26°06' W 080°10'0 0.0
2018-May-29 01:30N 26°06' W 080°10'0 0.0
2018-May-29 01:00N 26°06' W 080°10'0 0.0
2018-May-29 00:29N 26°06' W 080°10'0 0.0
2018-May-29 00:00N 26°06' W 080°10'0 0.0
2018-May-28 23:29N 26°06' W 080°10'0 0.0
2018-May-28 22:58N 26°06' W 080°10'0 0.0
2018-May-28 22:30N 26°06' W 080°10'0 0.0
2018-May-28 22:00N 26°06' W 080°10'0 0.0
2018-May-28 21:30N 26°06' W 080°10'0 0.0
2018-May-28 21:00N 26°06' W 080°10'0 0.0
2018-May-28 20:30N 26°06' W 080°10'0 0.0
2018-May-28 20:00N 26°06' W 080°10'0 0.0
2018-May-28 19:30N 26°06' W 080°10'0 0.0
2018-May-28 19:00N 26°06' W 080°10'0 0.0
2018-May-28 18:30N 26°06' W 080°10'0 0.0
2018-May-28 17:59N 26°06' W 080°10'0 0.0
2018-May-28 17:29N 26°06' W 080°10'0 0.0
2018-May-28 16:59N 26°06' W 080°10'0 0.0
2018-May-28 16:30N 26°06' W 080°10'0 0.0
2018-May-28 16:00N 26°06' W 080°10'0 0.0
2018-May-28 15:30N 26°06' W 080°10'0 0.0
2018-May-28 14:59N 26°06' W 080°10'0 0.0
2018-May-28 14:30N 26°06' W 080°10'0 0.0
2018-May-28 14:00N 26°06' W 080°10'0 0.0
2018-May-28 13:30N 26°06' W 080°10'0 0.0
2018-May-28 13:00N 26°06' W 080°10'0 0.0
2018-May-28 12:30N 26°06' W 080°10'0 0.0
2018-May-28 11:58N 26°06' W 080°10'0 0.0
2018-May-28 11:30N 26°06' W 080°10'0 0.0
2018-May-28 11:00N 26°06' W 080°10'0 0.0
2018-May-28 10:30N 26°06' W 080°10'0 0.0
2018-May-28 10:00N 26°06' W 080°10'0 0.0
2018-May-28 09:29N 26°06' W 080°10'0 0.0
2018-May-28 09:00N 26°06' W 080°10'0 0.0
2018-May-28 08:29N 26°06' W 080°10'0 0.0
2018-May-28 08:00N 26°06' W 080°10'0 0.0
2018-May-28 07:28N 26°06' W 080°10'0 0.0
2018-May-28 07:00N 26°06' W 080°10'0 0.0
2018-May-28 06:30N 26°06' W 080°10'0 0.0
2018-May-28 06:00N 26°06' W 080°10'0 0.0
2018-May-28 05:30N 26°06' W 080°10'0 0.0
2018-May-28 05:00N 26°06' W 080°10'0 0.0
2018-May-28 04:30N 26°06' W 080°10'0 0.0
2018-May-28 04:00N 26°06' W 080°10'0 0.0
2018-May-28 03:30N 26°06' W 080°10'0 0.0
2018-May-28 03:00N 26°06' W 080°10'0 0.0
2018-May-28 02:30N 26°06' W 080°10'0 0.0
2018-May-28 02:00N 26°06' W 080°10'0 0.0
2018-May-28 01:30N 26°06' W 080°10'0 0.0
2018-May-28 01:00N 26°06' W 080°10'0 0.0
2018-May-28 00:29N 26°06' W 080°10'0 0.0
2018-May-28 00:00N 26°06' W 080°10'0 0.0
2018-May-27 23:30N 26°06' W 080°10'0 0.0
2018-May-27 22:59N 26°06' W 080°10'0 0.0
2018-May-27 22:30N 26°06' W 080°10'0 0.0
2018-May-27 22:00N 26°06' W 080°10'0 0.0
2018-May-27 21:30N 26°06' W 080°10'0 0.0
2018-May-27 21:00N 26°06' W 080°10'0 0.0
2018-May-27 20:29N 26°06' W 080°10'0 0.0
2018-May-27 20:00N 26°06' W 080°10'0 0.0
2018-May-27 19:30N 26°06' W 080°10'0 0.0
2018-May-27 18:59N 26°06' W 080°10'0 0.0
2018-May-27 18:30N 26°06' W 080°10'0 0.0
2018-May-27 18:00N 26°06' W 080°10'0 0.0
2018-May-27 17:30N 26°06' W 080°10'0 0.0
2018-May-27 17:00N 26°06' W 080°10'0 0.0
2018-May-27 16:30N 26°06' W 080°10'0 0.0
2018-May-27 16:00N 26°06' W 080°10'0 0.0
2018-May-27 15:30N 26°06' W 080°10'0 0.0
2018-May-27 15:00N 26°06' W 080°10'0 0.0
2018-May-27 14:30N 26°06' W 080°10'0 0.0
2018-May-27 14:00N 26°06' W 080°10'0 0.0
2018-May-27 13:30N 26°06' W 080°10'0 0.0
2018-May-27 13:00N 26°06' W 080°10'0 0.0
2018-May-27 12:30N 26°06' W 080°10'0 0.0
2018-May-27 12:00N 26°06' W 080°10'0 0.0
2018-May-27 11:30N 26°06' W 080°10'0 0.0
2018-May-27 11:00N 26°06' W 080°10'0 0.0
2018-May-27 10:30N 26°06' W 080°10'0 0.0
2018-May-27 09:59N 26°06' W 080°10'0 0.0
2018-May-27 09:30N 26°06' W 080°10'0 0.0
2018-May-27 09:00N 26°06' W 080°10'0 0.0
2018-May-27 08:30N 26°06' W 080°10'0 0.0
2018-May-27 07:59N 26°06' W 080°10'0 0.0
2018-May-27 07:30N 26°06' W 080°10'0 0.0
2018-May-27 07:00N 26°06' W 080°10'0 0.0
2018-May-27 06:30N 26°06' W 080°10'0 0.0
2018-May-27 05:57N 26°06' W 080°10'0 0.0
2018-May-27 05:30N 26°06' W 080°10'0 0.0
2018-May-27 04:59N 26°06' W 080°10'0 0.0
2018-May-27 04:30N 26°06' W 080°10'0 0.0
2018-May-27 04:00N 26°06' W 080°10'0 0.0
2018-May-27 03:30N 26°06' W 080°10'0 0.0
2018-May-27 03:00N 26°06' W 080°10'0 0.0
2018-May-27 02:30N 26°06' W 080°10'0 0.0
2018-May-27 02:00N 26°06' W 080°10'0 0.0
2018-May-27 01:30N 26°06' W 080°10'0 0.0
2018-May-27 01:00N 26°06' W 080°10'0 0.0
2018-May-27 00:30N 26°06' W 080°10'0 0.0
2018-May-27 00:00N 26°06' W 080°10'0 0.0
2018-May-26 23:30N 26°06' W 080°10'0 0.0
2018-May-26 23:00N 26°06' W 080°10'0 0.0
2018-May-26 22:30N 26°06' W 080°10'0 0.0
2018-May-26 22:00N 26°06' W 080°10'0 0.0
2018-May-26 21:30N 26°06' W 080°10'0 0.0
2018-May-26 21:00N 26°06' W 080°10'0 0.0
2018-May-26 20:30N 26°06' W 080°10'0 0.0
2018-May-26 20:00N 26°06' W 080°10'0 0.0
2018-May-26 19:27N 26°06' W 080°10'0 0.0
2018-May-26 19:00N 26°06' W 080°10'0 0.0
2018-May-26 18:30N 26°06' W 080°10'0 0.0
2018-May-26 18:00N 26°06' W 080°10'0 0.0
2018-May-26 17:30N 26°06' W 080°10'0 0.0
2018-May-26 17:00N 26°06' W 080°10'0 0.0
2018-May-26 16:30N 26°06' W 080°10'0 0.0
2018-May-26 16:00N 26°06' W 080°10'0 0.0
2018-May-26 15:30N 26°06' W 080°10'0 0.0
2018-May-26 15:00N 26°06' W 080°10'0 0.0
2018-May-26 14:30N 26°06' W 080°10'0 0.0
2018-May-26 14:00N 26°06' W 080°10'0 0.0
2018-May-26 13:30N 26°06' W 080°10'0 0.0
2018-May-26 13:00N 26°06' W 080°10'0 0.0
2018-May-26 12:30N 26°06' W 080°10'0 0.0
2018-May-26 12:00N 26°06' W 080°10'0 0.0
2018-May-26 11:30N 26°06' W 080°10'0 0.0
2018-May-26 10:59N 26°06' W 080°10'0 0.0
2018-May-26 10:30N 26°06' W 080°10'0 0.0
2018-May-26 09:59N 26°06' W 080°10'0 0.0
2018-May-26 09:30N 26°06' W 080°10'0 0.0
2018-May-26 09:00N 26°06' W 080°10'0 0.0
2018-May-26 08:29N 26°06' W 080°10'0 0.0
2018-May-26 08:00N 26°06' W 080°10'0 0.0
2018-May-26 07:30N 26°06' W 080°10'0 0.0
2018-May-26 07:00N 26°06' W 080°10'0 0.0
2018-May-26 06:30N 26°06' W 080°10'0 0.0
2018-May-26 05:30N 26°06' W 080°10'0 0.0
2018-May-26 04:59N 26°06' W 080°10'0 0.0
2018-May-26 04:30N 26°06' W 080°10'0 0.0
2018-May-26 04:00N 26°06' W 080°10'0 0.0
2018-May-26 03:30N 26°06' W 080°10'0 0.0
2018-May-26 03:00N 26°06' W 080°10'0 0.0
2018-May-26 02:30N 26°06' W 080°10'0 0.0
2018-May-26 02:00N 26°06' W 080°10'0 0.0
2018-May-26 01:30N 26°06' W 080°10'0 0.0
2018-May-26 01:00N 26°06' W 080°10'0 0.0
2018-May-26 00:30N 26°06' W 080°10'0 0.0
2018-May-26 00:00N 26°06' W 080°10'0 0.0
2018-May-25 23:30N 26°06' W 080°10'0 0.0
2018-May-25 23:00N 26°06' W 080°10'0 0.0
2018-May-25 22:30N 26°06' W 080°10'0 0.0
2018-May-25 22:00N 26°06' W 080°10'0 0.0
2018-May-25 21:29N 26°06' W 080°10'0 0.0
2018-May-25 21:00N 26°06' W 080°10'0 0.0
2018-May-25 20:30N 26°06' W 080°10'0 0.0
2018-May-25 19:59N 26°06' W 080°10'0 0.0
2018-May-25 19:30N 26°06' W 080°10'0 0.0
2018-May-25 19:00N 26°06' W 080°10'0 0.0
2018-May-25 18:30N 26°06' W 080°10'0 0.0
2018-May-25 18:00N 26°06' W 080°10'0 0.0
2018-May-25 17:30N 26°06' W 080°10'0 0.0
2018-May-25 17:00N 26°06' W 080°10'0 0.0
2018-May-25 16:30N 26°06' W 080°10'0 0.0
2018-May-25 16:00N 26°06' W 080°10'0 0.0
2018-May-25 15:30N 26°06' W 080°10'0 0.0
2018-May-25 15:00N 26°06' W 080°10'0 0.0
2018-May-25 14:30N 26°06' W 080°10'0 0.0
2018-May-25 14:00N 26°06' W 080°10'0 0.0
2018-May-25 13:30N 26°06' W 080°10'0 0.0
2018-May-25 13:00N 26°06' W 080°10'0 0.0
2018-May-25 12:30N 26°06' W 080°10'0 0.0
2018-May-25 12:00N 26°06' W 080°10'0 0.0
2018-May-25 11:29N 26°06' W 080°10'0 0.0
2018-May-25 11:00N 26°06' W 080°10'0 0.0
2018-May-25 10:30N 26°06' W 080°10'0 0.0
2018-May-25 10:00N 26°06' W 080°10'0 0.0
2018-May-25 09:30N 26°06' W 080°10'0 0.0
2018-May-25 09:00N 26°06' W 080°10'0 0.0
2018-May-25 08:30N 26°06' W 080°10'0 0.0
2018-May-25 08:00N 26°06' W 080°10'0 0.0
2018-May-25 07:30N 26°06' W 080°10'0 0.0
2018-May-25 06:59N 26°06' W 080°10'0 0.0
2018-May-25 06:30N 26°06' W 080°10'0 0.0
2018-May-25 06:00N 26°06' W 080°10'0 0.0
2018-May-25 05:30N 26°06' W 080°10'0 0.0
2018-May-25 05:00N 26°06' W 080°10'0 0.0
2018-May-25 04:30N 26°06' W 080°10'0 0.0
2018-May-25 04:00N 26°06' W 080°10'0 0.0
2018-May-25 03:30N 26°06' W 080°10'0 0.0
2018-May-25 03:00N 26°06' W 080°10'0 0.0
2018-May-25 02:30N 26°06' W 080°10'0 0.0
2018-May-25 02:00N 26°06' W 080°10'0 0.0
2018-May-25 01:29N 26°06' W 080°10'0 0.0
2018-May-25 01:00N 26°06' W 080°10'0 0.0
2018-May-25 00:30N 26°06' W 080°10'0 0.0
2018-May-25 00:00N 26°06' W 080°10'0 0.0
2018-May-24 23:30N 26°06' W 080°10'0 0.0
2018-May-24 23:00N 26°06' W 080°10'0 0.0
2018-May-24 22:30N 26°06' W 080°10'0 0.0
2018-May-24 22:00N 26°06' W 080°10'0 0.0
2018-May-24 21:30N 26°06' W 080°10'0 0.0
2018-May-24 21:00N 26°06' W 080°10'0 0.0
2018-May-24 20:30N 26°06' W 080°10'0 0.0
2018-May-24 20:00N 26°06' W 080°10'0 0.0
2018-May-24 19:30N 26°06' W 080°10'0 0.0
2018-May-24 19:00N 26°06' W 080°10'0 0.0
2018-May-24 18:30N 26°06' W 080°10'0 0.0
2018-May-24 18:00N 26°06' W 080°10'0 0.0
2018-May-24 17:30N 26°06' W 080°10'0 0.0
2018-May-24 17:00N 26°06' W 080°10'0 0.0
2018-May-24 16:30N 26°06' W 080°10'0 0.0
2018-May-24 16:00N 26°06' W 080°10'0 0.0
2018-May-24 15:30N 26°06' W 080°10'0 0.0
2018-May-24 15:00N 26°06' W 080°10'0 0.0
2018-May-24 14:30N 26°06' W 080°10'0 0.0
2018-May-24 14:00N 26°06' W 080°10'0 0.0
2018-May-24 13:30N 26°06' W 080°10'0 0.0
2018-May-24 09:00N 26°06' W 080°10'0 0.0
2018-May-24 08:30N 26°06' W 080°10'0 0.0
2018-May-24 08:00N 26°06' W 080°10'0 0.0
2018-May-24 07:30N 26°06' W 080°10'0 0.0
2018-May-24 07:00N 26°06' W 080°10'0 0.0
2018-May-24 06:30N 26°06' W 080°10'0 0.0
2018-May-24 06:00N 26°06' W 080°10'0 0.0
2018-May-24 05:30N 26°06' W 080°10'0 0.0
2018-May-24 05:00N 26°06' W 080°10'0 0.0
2018-May-24 04:30N 26°06' W 080°10'0 0.0
2018-May-24 04:00N 26°06' W 080°10'0 0.0
2018-May-24 03:29N 26°06' W 080°10'0 0.0
2018-May-24 03:00N 26°06' W 080°10'0 0.0
2018-May-24 02:30N 26°06' W 080°10'0 0.0
2018-May-24 02:00N 26°06' W 080°10'0 0.0
2018-May-24 01:30N 26°06' W 080°10'0 0.0
2018-May-24 01:00N 26°06' W 080°10'0 0.0
2018-May-24 00:30N 26°06' W 080°10'0 0.0
2018-May-24 00:00N 26°06' W 080°10'0 0.0
2018-May-23 23:30N 26°06' W 080°10'0 0.0
2018-May-23 22:59N 26°06' W 080°10'0 0.0
2018-May-23 22:30N 26°06' W 080°10'0 0.0
2018-May-23 22:00N 26°06' W 080°10'0 0.0
2018-May-23 21:30N 26°06' W 080°10'0 0.0
2018-May-23 21:00N 26°06' W 080°10'0 0.0
2018-May-23 20:30N 26°06' W 080°10'0 0.0
2018-May-23 20:00N 26°06' W 080°10'0 0.0
2018-May-23 19:30N 26°06' W 080°10'0 0.0
2018-May-23 19:00N 26°06' W 080°10'0 0.0
2018-May-23 18:30N 26°06' W 080°10'0 0.0
2018-May-23 18:00N 26°06' W 080°10'0 0.0
2018-May-23 17:28N 26°06' W 080°10'0 0.0
2018-May-23 17:00N 26°06' W 080°10'0 0.0
2018-May-23 16:30N 26°06' W 080°10'0 0.0
2018-May-23 16:00N 26°06' W 080°10'0 0.0
2018-May-23 15:30N 26°06' W 080°10'  
Track history (hours):
 
Tides and Currents Weather Stations Pressure Air Temp Water Temp Dewpoint Dewpoint Depression Visibility Wind Speed Wind Dir Waves Ship Positions

Kauhale Kai

Last reported at 2018-Jun-02 15:21 UTC. Time now 2018-Jun-19 19:58 UTC.
Position N 26°10' W 079°37'.
Warning: this ship's position is 17 days out of date.

; draft 2.8 m.

Type: Pleasure craft. MMSI: 538070338.

Date/timePositionNaut miles runAvg speedWind from/ knotsBaromVisibWave heightAir tempDewpointWater temp
2018-Jun-02 15:21N 26°10' W 079°37'3 8.2
2018-Jun-02 15:00N 26°10' W 079°40'4 8.2
2018-Jun-02 14:29N 26°09' W 079°45'4 8.1
2018-Jun-02 14:00N 26°09' W 079°49'5 8.4
2018-Jun-02 13:27N 26°08' W 079°54'4 9.5
2018-Jun-02 13:00N 26°06' W 079°59'4 9.2
2018-Jun-02 12:30N 26°06' W 080°04'3 6.8
2018-Jun-02 12:00N 26°06' W 080°07'1 2.8
2018-Jun-02 11:30N 26°07' W 080°09'2 3.0
2018-Jun-02 11:00N 26°06' W 080°10'0 0.3
2018-Jun-02 10:30N 26°06' W 080°10'0 0.0
2018-Jun-02 10:00N 26°06' W 080°10'0 0.0
2018-Jun-02 09:30N 26°06' W 080°10'0 0.0
2018-Jun-02 08:59N 26°06' W 080°10'0 0.0
2018-Jun-02 08:30N 26°06' W 080°10'0 0.0
2018-Jun-02 08:00N 26°06' W 080°10'0 0.0
2018-Jun-02 07:30N 26°06' W 080°10'0 0.0
2018-Jun-02 07:00N 26°06' W 080°10'0 0.0
2018-Jun-02 06:30N 26°06' W 080°10'0 0.0
2018-Jun-02 06:00N 26°06' W 080°10'0 0.0
2018-Jun-02 05:30N 26°06' W 080°10'0 0.0
2018-Jun-02 05:00N 26°06' W 080°10'0 0.0
2018-Jun-02 04:30N 26°06' W 080°10'0 0.0
2018-Jun-02 04:00N 26°06' W 080°10'0 0.0
2018-Jun-02 03:30N 26°06' W 080°10'0 0.0
2018-Jun-02 03:00N 26°06' W 080°10'0 0.0
2018-Jun-02 02:30N 26°06' W 080°10'0 0.0
2018-Jun-02 02:00N 26°06' W 080°10'0 0.0
2018-Jun-02 01:30N 26°06' W 080°10'0 0.0
2018-Jun-02 01:00N 26°06' W 080°10'0 0.0
2018-Jun-02 00:30N 26°06' W 080°10'0 0.0
2018-Jun-02 00:00N 26°06' W 080°10'0 0.0
2018-Jun-01 23:29N 26°06' W 080°10'0 0.0
2018-Jun-01 23:00N 26°06' W 080°10'0 0.3
2018-Jun-01 22:30N 26°06' W 080°10'0 0.0
2018-Jun-01 22:00N 26°06' W 080°10'0 0.0
2018-Jun-01 21:30N 26°06' W 080°10'0 0.0
2018-Jun-01 21:00N 26°06' W 080°10'0 0.0
2018-Jun-01 20:30N 26°06' W 080°10'0 0.0
2018-Jun-01 20:00N 26°06' W 080°10'0 0.0
2018-Jun-01 19:30N 26°06' W 080°10'0 0.0
2018-Jun-01 18:59N 26°06' W 080°10'0 0.0
2018-Jun-01 18:30N 26°06' W 080°10'0 0.0
2018-Jun-01 18:00N 26°06' W 080°10'0 0.0
2018-Jun-01 17:30N 26°06' W 080°10'0 0.0
2018-Jun-01 16:59N 26°06' W 080°10'0 0.0
2018-Jun-01 16:27N 26°06' W 080°10'0 0.0
2018-Jun-01 15:56N 26°06' W 080°10'0 0.0
2018-Jun-01 14:47N 26°06' W 080°10'0 0.0
2018-Jun-01 14:28N 26°06' W 080°10'0 0.0
2018-Jun-01 13:35N 26°06' W 080°10'0 0.0
2018-Jun-01 13:14N 26°06' W 080°10'0 0.0
2018-Jun-01 12:56N 26°06' W 080°10'0 0.0
2018-Jun-01 12:30N 26°06' W 080°10'0 0.0
2018-Jun-01 11:31N 26°06' W 080°10'0 0.1
2018-Jun-01 11:25N 26°06' W 080°10'0 0.0
2018-Jun-01 09:32N 26°06' W 080°10'0 0.0
2018-Jun-01 09:16N 26°06' W 080°10'0 0.0
2018-Jun-01 06:50N 26°06' W 080°10'0 0.0
2018-Jun-01 06:28N 26°06' W 080°10'0 0.0
2018-Jun-01 05:50N 26°06' W 080°10'0 0.0
2018-Jun-01 05:28N 26°06' W 080°10'0 0.0
2018-Jun-01 04:48N 26°06' W 080°10'0 0.0
2018-Jun-01 04:10N 26°06' W 080°10'0 0.0
2018-Jun-01 04:00N 26°06' W 080°10'0 0.0
2018-Jun-01 03:27N 26°06' W 080°10'0 0.0
2018-Jun-01 02:53N 26°06' W 080°10'0 0.0
2018-Jun-01 02:30N 26°06' W 080°10'0 0.0
2018-Jun-01 02:00N 26°06' W 080°10'0 0.0
2018-Jun-01 01:30N 26°06' W 080°10'0 0.0
2018-Jun-01 00:59N 26°06' W 080°10'0 0.0
2018-Jun-01 00:30N 26°06' W 080°10'0 0.0
2018-Jun-01 00:00N 26°06' W 080°10'0 0.0
2018-May-31 23:29N 26°06' W 080°10'0 0.0
2018-May-31 23:00N 26°06' W 080°10'0 0.0
2018-May-31 22:30N 26°06' W 080°10'0 0.0
2018-May-31 22:00N 26°06' W 080°10'0 0.0
2018-May-31 21:26N 26°06' W 080°10'0 0.0
2018-May-31 21:00N 26°06' W 080°10'0 0.0
2018-May-31 20:30N 26°06' W 080°10'0 0.0
2018-May-31 20:00N 26°06' W 080°10'0 0.0
2018-May-31 19:30N 26°06' W 080°10'0 0.0
2018-May-31 19:00N 26°06' W 080°10'0 0.0
2018-May-31 18:30N 26°06' W 080°10'0 0.0
2018-May-31 18:00N 26°06' W 080°10'0 0.0
2018-May-31 17:30N 26°06' W 080°10'0 0.0
2018-May-31 17:00N 26°06' W 080°10'0 0.0
2018-May-31 16:30N 26°06' W 080°10'0 0.0
2018-May-31 16:00N 26°06' W 080°10'0 0.0
2018-May-31 15:30N 26°06' W 080°10'0 0.0
2018-May-31 14:59N 26°06' W 080°10'0 0.0
2018-May-31 14:30N 26°06' W 080°10'0 0.0
2018-May-31 14:00N 26°06' W 080°10'0 0.0
2018-May-31 13:30N 26°06' W 080°10'0 0.0
2018-May-31 13:00N 26°06' W 080°10'0 0.0
2018-May-31 12:30N 26°06' W 080°10'0 0.0
2018-May-31 12:00N 26°06' W 080°10'0 0.0
2018-May-31 11:30N 26°06' W 080°10'0 0.0
2018-May-31 11:00N 26°06' W 080°10'0 0.0
2018-May-31 10:30N 26°06' W 080°10'0 0.0
2018-May-31 10:00N 26°06' W 080°10'0 0.0
2018-May-31 09:29N 26°06' W 080°10'0 0.0
2018-May-31 09:00N 26°06' W 080°10'0 0.0
2018-May-31 08:30N 26°06' W 080°10'0 0.0
2018-May-31 08:00N 26°06' W 080°10'0 0.0
2018-May-31 07:30N 26°06' W 080°10'0 0.0
2018-May-31 07:00N 26°06' W 080°10'0 0.0
2018-May-31 06:29N 26°06' W 080°10'0 0.0
2018-May-31 05:59N 26°06' W 080°10'0 0.0
2018-May-31 05:30N 26°06' W 080°10'0 0.0
2018-May-31 05:00N 26°06' W 080°10'0 0.0
2018-May-31 04:29N 26°06' W 080°10'0 0.0
2018-May-31 04:00N 26°06' W 080°10'0 0.0
2018-May-31 03:30N 26°06' W 080°10'0 0.0
2018-May-31 03:00N 26°06' W 080°10'0 0.0
2018-May-31 02:30N 26°06' W 080°10'0 0.0
2018-May-31 02:00N 26°06' W 080°10'0 0.0
2018-May-31 01:30N 26°06' W 080°10'0 0.0
2018-May-31 01:00N 26°06' W 080°10'0 0.0
2018-May-31 00:30N 26°06' W 080°10'0 0.0
2018-May-31 00:00N 26°06' W 080°10'0 0.0
2018-May-30 23:30N 26°06' W 080°10'0 0.0
2018-May-30 22:58N 26°06' W 080°10'0 0.0
2018-May-30 22:30N 26°06' W 080°10'0 0.0
2018-May-30 22:00N 26°06' W 080°10'0 0.0
2018-May-30 21:30N 26°06' W 080°10'0 0.0
2018-May-30 21:00N 26°06' W 080°10'0 0.0
2018-May-30 20:27N 26°06' W 080°10'0 0.0
2018-May-30 19:59N 26°06' W 080°10'0 0.0
2018-May-30 19:29N 26°06' W 080°10'0 0.0
2018-May-30 19:00N 26°06' W 080°10'0 0.0
2018-May-30 18:30N 26°06' W 080°10'0 0.0
2018-May-30 17:59N 26°06' W 080°10'0 0.0
2018-May-30 17:30N 26°06' W 080°10'0 0.0
2018-May-30 17:00N 26°06' W 080°10'0 0.0
2018-May-30 16:30N 26°06' W 080°10'0 0.0
2018-May-30 15:59N 26°06' W 080°10'0 0.0
2018-May-30 15:30N 26°06' W 080°10'0 0.0
2018-May-30 15:00N 26°06' W 080°10'0 0.0
2018-May-30 14:30N 26°06' W 080°10'0 0.0
2018-May-30 14:00N 26°06' W 080°10'0 0.0
2018-May-30 13:30N 26°06' W 080°10'0 0.0
2018-May-30 13:00N 26°06' W 080°10'0 0.0
2018-May-30 12:30N 26°06' W 080°10'0 0.0
2018-May-30 12:00N 26°06' W 080°10'0 0.0
2018-May-30 11:30N 26°06' W 080°10'0 0.0
2018-May-30 11:00N 26°06' W 080°10'0 0.0
2018-May-30 10:30N 26°06' W 080°10'0 0.0
2018-May-30 10:00N 26°06' W 080°10'0 0.0
2018-May-30 09:30N 26°06' W 080°10'0 0.0
2018-May-30 09:00N 26°06' W 080°10'0 0.0
2018-May-30 08:30N 26°06' W 080°10'0 0.0
2018-May-30 08:00N 26°06' W 080°10'0 0.0
2018-May-30 07:30N 26°06' W 080°10'0 0.0
2018-May-30 07:00N 26°06' W 080°10'0 0.0
2018-May-30 06:30N 26°06' W 080°10'0 0.0
2018-May-30 06:00N 26°06' W 080°10'0 0.0
2018-May-30 05:30N 26°06' W 080°10'0 0.0
2018-May-30 05:00N 26°06' W 080°10'0 0.0
2018-May-30 04:30N 26°06' W 080°10'0 0.0
2018-May-30 04:00N 26°06' W 080°10'0 0.0
2018-May-30 03:30N 26°06' W 080°10'0 0.0
2018-May-30 03:00N 26°06' W 080°10'0 0.0
2018-May-30 02:30N 26°06' W 080°10'0 0.0
2018-May-30 02:00N 26°06' W 080°10'0 0.0
2018-May-30 01:30N 26°06' W 080°10'0 0.0
2018-May-30 01:00N 26°06' W 080°10'0 0.0
2018-May-30 00:30N 26°06' W 080°10'0 0.0
2018-May-30 00:00N 26°06' W 080°10'0 0.0
2018-May-29 23:29N 26°06' W 080°10'0 0.0
2018-May-29 23:00N 26°06' W 080°10'0 0.0
2018-May-29 22:30N 26°06' W 080°10'0 0.0
2018-May-29 22:00N 26°06' W 080°10'0 0.0
2018-May-29 21:30N 26°06' W 080°10'0 0.0
2018-May-29 21:00N 26°06' W 080°10'0 0.0
2018-May-29 20:30N 26°06' W 080°10'0 0.0
2018-May-29 20:00N 26°06' W 080°10'0 0.0
2018-May-29 19:30N 26°06' W 080°10'0 0.0
2018-May-29 19:00N 26°06' W 080°10'0 0.0
2018-May-29 18:30N 26°06' W 080°10'0 0.0
2018-May-29 18:00N 26°06' W 080°10'0 0.0
2018-May-29 17:30N 26°06' W 080°10'0 0.0
2018-May-29 16:59N 26°06' W 080°10'0 0.0
2018-May-29 16:29N 26°06' W 080°10'0 0.0
2018-May-29 16:00N 26°06' W 080°10'0 0.0
2018-May-29 15:30N 26°06' W 080°10'0 0.0
2018-May-29 15:00N 26°06' W 080°10'0 0.0
2018-May-29 14:30N 26°06' W 080°10'0 0.0
2018-May-29 14:00N 26°06' W 080°10'0 0.0
2018-May-29 13:30N 26°06' W 080°10'0 0.0
2018-May-29 13:00N 26°06' W 080°10'0 0.0
2018-May-29 12:30N 26°06' W 080°10'0 0.0
2018-May-29 12:00N 26°06' W 080°10'0 0.0
2018-May-29 11:30N 26°06' W 080°10'0 0.0
2018-May-29 10:58N 26°06' W 080°10'0 0.0
2018-May-29 10:30N 26°06' W 080°10'0 0.0
2018-May-29 09:59N 26°06' W 080°10'0 0.0
2018-May-29 09:30N 26°06' W 080°10'0 0.0
2018-May-29 09:00N 26°06' W 080°10'0 0.0
2018-May-29 08:30N 26°06' W 080°10'0 0.0
2018-May-29 08:00N 26°06' W 080°10'0 0.0
2018-May-29 07:28N 26°06' W 080°10'0 0.0
2018-May-29 07:00N 26°06' W 080°10'0 0.0
2018-May-29 06:30N 26°06' W 080°10'0 0.0
2018-May-29 06:00N 26°06' W 080°10'0 0.0
2018-May-29 05:30N 26°06' W 080°10'0 0.0
2018-May-29 05:00N 26°06' W 080°10'0 0.0
2018-May-29 04:27N 26°06' W 080°10'0 0.0
2018-May-29 04:00N 26°06' W 080°10'0 0.0
2018-May-29 03:30N 26°06' W 080°10'0 0.0
2018-May-29 03:00N 26°06' W 080°10'0 0.0
2018-May-29 02:30N 26°06' W 080°10'0 0.0
2018-May-29 02:00N 26°06' W 080°10'0 0.0
2018-May-29 01:30N 26°06' W 080°10'0 0.0
2018-May-29 01:00N 26°06' W 080°10'0 0.0
2018-May-29 00:29N 26°06' W 080°10'0 0.0
2018-May-29 00:00N 26°06' W 080°10'0 0.0
2018-May-28 23:29N 26°06' W 080°10'0 0.0
2018-May-28 22:58N 26°06' W 080°10'0 0.0
2018-May-28 22:30N 26°06' W 080°10'0 0.0
2018-May-28 22:00N 26°06' W 080°10'0 0.0
2018-May-28 21:30N 26°06' W 080°10'0 0.0
2018-May-28 21:00N 26°06' W 080°10'0 0.0
2018-May-28 20:30N 26°06' W 080°10'0 0.0
2018-May-28 20:00N 26°06' W 080°10'0 0.0
2018-May-28 19:30N 26°06' W 080°10'0 0.0
2018-May-28 19:00N 26°06' W 080°10'0 0.0
2018-May-28 18:30N 26°06' W 080°10'0 0.0
2018-May-28 17:59N 26°06' W 080°10'0 0.0
2018-May-28 17:29N 26°06' W 080°10'0 0.0
2018-May-28 16:59N 26°06' W 080°10'0 0.0
2018-May-28 16:30N 26°06' W 080°10'0 0.0
2018-May-28 16:00N 26°06' W 080°10'0 0.0
2018-May-28 15:30N 26°06' W 080°10'0 0.0
2018-May-28 14:59N 26°06' W 080°10'0 0.0
2018-May-28 14:30N 26°06' W 080°10'0 0.0
2018-May-28 14:00N 26°06' W 080°10'0 0.0
2018-May-28 13:30N 26°06' W 080°10'0 0.0
2018-May-28 13:00N 26°06' W 080°10'0 0.0
2018-May-28 12:30N 26°06' W 080°10'0 0.0
2018-May-28 11:58N 26°06' W 080°10'0 0.0
2018-May-28 11:30N 26°06' W 080°10'0 0.0
2018-May-28 11:00N 26°06' W 080°10'0 0.0
2018-May-28 10:30N 26°06' W 080°10'0 0.0
2018-May-28 10:00N 26°06' W 080°10'0 0.0
2018-May-28 09:29N 26°06' W 080°10'0 0.0
2018-May-28 09:00N 26°06' W 080°10'0 0.0
2018-May-28 08:29N 26°06' W 080°10'0 0.0
2018-May-28 08:00N 26°06' W 080°10'0 0.0
2018-May-28 07:28N 26°06' W 080°10'0 0.0
2018-May-28 07:00N 26°06' W 080°10'0 0.0
2018-May-28 06:30N 26°06' W 080°10'0 0.0
2018-May-28 06:00N 26°06' W 080°10'0 0.0
2018-May-28 05:30N 26°06' W 080°10'0 0.0
2018-May-28 05:00N 26°06' W 080°10'0 0.0
2018-May-28 04:30N 26°06' W 080°10'0 0.0
2018-May-28 04:00N 26°06' W 080°10'0 0.0
2018-May-28 03:30N 26°06' W 080°10'0 0.0
2018-May-28 03:00N 26°06' W 080°10'0 0.0
2018-May-28 02:30N 26°06' W 080°10'0 0.0
2018-May-28 02:00N 26°06' W 080°10'0 0.0
2018-May-28 01:30N 26°06' W 080°10'0 0.0
2018-May-28 01:00N 26°06' W 080°10'0 0.0
2018-May-28 00:29N 26°06' W 080°10'0 0.0
2018-May-28 00:00N 26°06' W 080°10'0 0.0
2018-May-27 23:30N 26°06' W 080°10'0 0.0
2018-May-27 22:59N 26°06' W 080°10'0 0.0
2018-May-27 22:30N 26°06' W 080°10'0 0.0
2018-May-27 22:00N 26°06' W 080°10'0 0.0
2018-May-27 21:30N 26°06' W 080°10'0 0.0
2018-May-27 21:00N 26°06' W 080°10'0 0.0
2018-May-27 20:29N 26°06' W 080°10'0 0.0
2018-May-27 20:00N 26°06' W 080°10'0 0.0
2018-May-27 19:30N 26°06' W 080°10'0 0.0
2018-May-27 18:59N 26°06' W 080°10'0 0.0
2018-May-27 18:30N 26°06' W 080°10'0 0.0
2018-May-27 18:00N 26°06' W 080°10'0 0.0
2018-May-27 17:30N 26°06' W 080°10'0 0.0
2018-May-27 17:00N 26°06' W 080°10'0 0.0
2018-May-27 16:30N 26°06' W 080°10'0 0.0
2018-May-27 16:00N 26°06' W 080°10'0 0.0
2018-May-27 15:30N 26°06' W 080°10'0 0.0
2018-May-27 15:00N 26°06' W 080°10'0 0.0
2018-May-27 14:30N 26°06' W 080°10'0 0.0
2018-May-27 14:00N 26°06' W 080°10'0 0.0
2018-May-27 13:30N 26°06' W 080°10'0 0.0
2018-May-27 13:00N 26°06' W 080°10'0 0.0
2018-May-27 12:30N 26°06' W 080°10'0 0.0
2018-May-27 12:00N 26°06' W 080°10'0 0.0
2018-May-27 11:30N 26°06' W 080°10'0 0.0
2018-May-27 11:00N 26°06' W 080°10'0 0.0
2018-May-27 10:30N 26°06' W 080°10'0 0.0
2018-May-27 09:59N 26°06' W 080°10'0 0.0
2018-May-27 09:30N 26°06' W 080°10'0 0.0
2018-May-27 09:00N 26°06' W 080°10'0 0.0
2018-May-27 08:30N 26°06' W 080°10'0 0.0
2018-May-27 07:59N 26°06' W 080°10'0 0.0
2018-May-27 07:30N 26°06' W 080°10'0 0.0
2018-May-27 07:00N 26°06' W 080°10'0 0.0
2018-May-27 06:30N 26°06' W 080°10'0 0.0
2018-May-27 05:57N 26°06' W 080°10'0 0.0
2018-May-27 05:30N 26°06' W 080°10'0 0.0
2018-May-27 04:59N 26°06' W 080°10'0 0.0
2018-May-27 04:30N 26°06' W 080°10'0 0.0
2018-May-27 04:00N 26°06' W 080°10'0 0.0
2018-May-27 03:30N 26°06' W 080°10'0 0.0
2018-May-27 03:00N 26°06' W 080°10'0 0.0
2018-May-27 02:30N 26°06' W 080°10'0 0.0
2018-May-27 02:00N 26°06' W 080°10'0 0.0
2018-May-27 01:30N 26°06' W 080°10'0 0.0
2018-May-27 01:00N 26°06' W 080°10'0 0.0
2018-May-27 00:30N 26°06' W 080°10'0 0.0
2018-May-27 00:00N 26°06' W 080°10'0 0.0
2018-May-26 23:30N 26°06' W 080°10'0 0.0
2018-May-26 23:00N 26°06' W 080°10'0 0.0
2018-May-26 22:30N 26°06' W 080°10'0 0.0
2018-May-26 22:00N 26°06' W 080°10'0 0.0
2018-May-26 21:30N 26°06' W 080°10'0 0.0
2018-May-26 21:00N 26°06' W 080°10'0 0.0
2018-May-26 20:30N 26°06' W 080°10'0 0.0
2018-May-26 20:00N 26°06' W 080°10'0 0.0
2018-May-26 19:27N 26°06' W 080°10'0 0.0
2018-May-26 19:00N 26°06' W 080°10'0 0.0
2018-May-26 18:30N 26°06' W 080°10'0 0.0
2018-May-26 18:00N 26°06' W 080°10'0 0.0
2018-May-26 17:30N 26°06' W 080°10'0 0.0
2018-May-26 17:00N 26°06' W 080°10'0 0.0
2018-May-26 16:30N 26°06' W 080°10'0 0.0
2018-May-26 16:00N 26°06' W 080°10'0 0.0
2018-May-26 15:30N 26°06' W 080°10'0 0.0
2018-May-26 15:00N 26°06' W 080°10'0 0.0
2018-May-26 14:30N 26°06' W 080°10'0 0.0
2018-May-26 14:00N 26°06' W 080°10'0 0.0
2018-May-26 13:30N 26°06' W 080°10'0 0.0
2018-May-26 13:00N 26°06' W 080°10'0 0.0
2018-May-26 12:30N 26°06' W 080°10'0 0.0
2018-May-26 12:00N 26°06' W 080°10'0 0.0
2018-May-26 11:30N 26°06' W 080°10'0 0.0
2018-May-26 10:59N 26°06' W 080°10'0 0.0
2018-May-26 10:30N 26°06' W 080°10'0 0.0
2018-May-26 09:59N 26°06' W 080°10'0 0.0
2018-May-26 09:30N 26°06' W 080°10'0 0.0
2018-May-26 09:00N 26°06' W 080°10'0 0.0
2018-May-26 08:29N 26°06' W 080°10'0 0.0
2018-May-26 08:00N 26°06' W 080°10'0 0.0
2018-May-26 07:30N 26°06' W 080°10'0 0.0
2018-May-26 07:00N 26°06' W 080°10'0 0.0
2018-May-26 06:30N 26°06' W 080°10'0 0.0
2018-May-26 05:30N 26°06' W 080°10'0 0.0
2018-May-26 04:59N 26°06' W 080°10'0 0.0
2018-May-26 04:30N 26°06' W 080°10'0 0.0
2018-May-26 04:00N 26°06' W 080°10'0 0.0
2018-May-26 03:30N 26°06' W 080°10'0 0.0
2018-May-26 03:00N 26°06' W 080°10'0 0.0
2018-May-26 02:30N 26°06' W 080°10'0 0.0
2018-May-26 02:00N 26°06' W 080°10'0 0.0
2018-May-26 01:30N 26°06' W 080°10'0 0.0
2018-May-26 01:00N 26°06' W 080°10'0 0.0
2018-May-26 00:30N 26°06' W 080°10'0 0.0
2018-May-26 00:00N 26°06' W 080°10'0 0.0
2018-May-25 23:30N 26°06' W 080°10'0 0.0
2018-May-25 23:00N 26°06' W 080°10'0 0.0
2018-May-25 22:30N 26°06' W 080°10'0 0.0
2018-May-25 22:00N 26°06' W 080°10'0 0.0
2018-May-25 21:29N 26°06' W 080°10'0 0.0
2018-May-25 21:00N 26°06' W 080°10'0 0.0
2018-May-25 20:30N 26°06' W 080°10'0 0.0
2018-May-25 19:59N 26°06' W 080°10'0 0.0
2018-May-25 19:30N 26°06' W 080°10'0 0.0
2018-May-25 19:00N 26°06' W 080°10'0 0.0
2018-May-25 18:30N 26°06' W 080°10'0 0.0
2018-May-25 18:00N 26°06' W 080°10'0 0.0
2018-May-25 17:30N 26°06' W 080°10'0 0.0
2018-May-25 17:00N 26°06' W 080°10'0 0.0
2018-May-25 16:30N 26°06' W 080°10'0 0.0
2018-May-25 16:00N 26°06' W 080°10'0 0.0
2018-May-25 15:30N 26°06' W 080°10'0 0.0
2018-May-25 15:00N 26°06' W 080°10'0 0.0
2018-May-25 14:30N 26°06' W 080°10'0 0.0
2018-May-25 14:00N 26°06' W 080°10'0 0.0
2018-May-25 13:30N 26°06' W 080°10'0 0.0
2018-May-25 13:00N 26°06' W 080°10'0 0.0
2018-May-25 12:30N 26°06' W 080°10'0 0.0
2018-May-25 12:00N 26°06' W 080°10'0 0.0
2018-May-25 11:29N 26°06' W 080°10'0 0.0
2018-May-25 11:00N 26°06' W 080°10'0 0.0
2018-May-25 10:30N 26°06' W 080°10'0 0.0
2018-May-25 10:00N 26°06' W 080°10'0 0.0
2018-May-25 09:30N 26°06' W 080°10'0 0.0
2018-May-25 09:00N 26°06' W 080°10'0 0.0
2018-May-25 08:30N 26°06' W 080°10'0 0.0
2018-May-25 08:00N 26°06' W 080°10'0 0.0
2018-May-25 07:30N 26°06' W 080°10'0 0.0
2018-May-25 06:59N 26°06' W 080°10'0 0.0
2018-May-25 06:30N 26°06' W 080°10'0 0.0
2018-May-25 06:00N 26°06' W 080°10'0 0.0
2018-May-25 05:30N 26°06' W 080°10'0 0.0
2018-May-25 05:00N 26°06' W 080°10'0 0.0
2018-May-25 04:30N 26°06' W 080°10'0 0.0
2018-May-25 04:00N 26°06' W 080°10'0 0.0
2018-May-25 03:30N 26°06' W 080°10'0 0.0
2018-May-25 03:00N 26°06' W 080°10'0 0.0
2018-May-25 02:30N 26°06' W 080°10'0 0.0
2018-May-25 02:00N 26°06' W 080°10'0 0.0
2018-May-25 01:29N 26°06' W 080°10'0 0.0
2018-May-25 01:00N 26°06' W 080°10'0 0.0
2018-May-25 00:30N 26°06' W 080°10'0 0.0
2018-May-25 00:00N 26°06' W 080°10'0 0.0
2018-May-24 23:30N 26°06' W 080°10'0 0.0
2018-May-24 23:00N 26°06' W 080°10'0 0.0
2018-May-24 22:30N 26°06' W 080°10'0 0.0
2018-May-24 22:00N 26°06' W 080°10'0 0.0
2018-May-24 21:30N 26°06' W 080°10'0 0.0
2018-May-24 21:00N 26°06' W 080°10'0 0.0
2018-May-24 20:30N 26°06' W 080°10'0 0.0
2018-May-24 20:00N 26°06' W 080°10'0 0.0
2018-May-24 19:30N 26°06' W 080°10'0 0.0
2018-May-24 19:00N 26°06' W 080°10'0 0.0
2018-May-24 18:30N 26°06' W 080°10'0 0.0
2018-May-24 18:00N 26°06' W 080°10'0 0.0
2018-May-24 17:30N 26°06' W 080°10'0 0.0
2018-May-24 17:00N 26°06' W 080°10'0 0.0
2018-May-24 16:30N 26°06' W 080°10'0 0.0
2018-May-24 16:00N 26°06' W 080°10'0 0.0
2018-May-24 15:30N 26°06' W 080°10'0 0.0
2018-May-24 15:00N 26°06' W 080°10'0 0.0
2018-May-24 14:30N 26°06' W 080°10'0 0.0
2018-May-24 14:00N 26°06' W 080°10'0 0.0
2018-May-24 13:30N 26°06' W 080°10'0 0.0
2018-May-24 09:00N 26°06' W 080°10'0 0.0
2018-May-24 08:30N 26°06' W 080°10'0 0.0
2018-May-24 08:00N 26°06' W 080°10'0 0.0
2018-May-24 07:30N 26°06' W 080°10'0 0.0
2018-May-24 07:00N 26°06' W 080°10'0 0.0
2018-May-24 06:30N 26°06' W 080°10'0 0.0
2018-May-24 06:00N 26°06' W 080°10'0 0.0
2018-May-24 05:30N 26°06' W 080°10'0 0.0
2018-May-24 05:00N 26°06' W 080°10'0 0.0
2018-May-24 04:30N 26°06' W 080°10'0 0.0
2018-May-24 04:00N 26°06' W 080°10'0 0.0
2018-May-24 03:29N 26°06' W 080°10'0 0.0
2018-May-24 03:00N 26°06' W 080°10'0 0.0
2018-May-24 02:30N 26°06' W 080°10'0 0.0
2018-May-24 02:00N 26°06' W 080°10'0 0.0
2018-May-24 01:30N 26°06' W 080°10'0 0.0
2018-May-24 01:00N 26°06' W 080°10'0 0.0
2018-May-24 00:30N 26°06' W 080°10'0 0.0
2018-May-24 00:00N 26°06' W 080°10'0 0.0
2018-May-23 23:30N 26°06' W 080°10'0 0.0
2018-May-23 22:59N 26°06' W 080°10'0 0.0
2018-May-23 22:30N 26°06' W 080°10'0 0.0
2018-May-23 22:00N 26°06' W 080°10'0 0.0
2018-May-23 21:30N 26°06' W 080°10'0 0.0
2018-May-23 21:00N 26°06' W 080°10'0 0.0
2018-May-23 20:30N 26°06' W 080°10'0 0.0
2018-May-23 20:00N 26°06' W 080°10'0 0.0
2018-May-23 19:30N 26°06' W 080°10'0 0.0
2018-May-23 19:00N 26°06' W 080°10'0 0.0
2018-May-23 18:30N 26°06' W 080°10'0 0.0
2018-May-23 18:00N 26°06' W 080°10'0 0.0
2018-May-23 17:28N 26°06' W 080°10'0 0.0
2018-May-23 17:00N 26°06' W 080°10'0 0.0
2018-May-23 16:30N 26°06' W 080°10'0 0.0
2018-May-23 16:00N 26°06' W 080°10'0 0.0
2018-May-23 15:30N 26°06' W 080°10'  

Dump ship's entire track history